Time;durP1;ratioP1;P1;durP2;ratioP2;P2;SDS_P1;SDS_P2;PMS_P1;PMS_P2;Temp;Humidity;BMP_temperature;BMP_pressure;BME280_temperature;BME280_humidity;BME280_pressure;Samples;Min_cycle;Max_cycle;Signal;HPM_P1;HPM_P2
2022/11/28 00:02:41;;;;;;;;;62.00;49.00;;;;;8.95;59.53;99592.81;6171982;28;96984;-63
2022/11/28 00:05:44;;;;;;;;;61.00;48.00;;;;;8.91;59.47;99586.16;6169110;28;96462;-64
2022/11/28 00:08:49;;;;;;;;;60.00;48.00;;;;;8.92;59.60;99589.69;6186710;28;96477;-63
2022/11/28 00:11:53;;;;;;;;;58.00;47.80;;;;;8.96;59.43;99586.41;6194134;28;96612;-63
2022/11/28 00:14:56;;;;;;;;;62.00;49.00;;;;;8.92;59.36;99579.75;6189476;28;96952;-64
2022/11/28 00:18:01;;;;;;;;;64.00;50.50;;;;;8.99;59.42;99571.75;6177474;28;96906;-64
2022/11/28 00:21:06;;;;;;;;;62.00;50.00;;;;;8.94;59.32;99576.88;6177277;28;96706;-63
2022/11/28 00:24:09;;;;;;;;;60.00;46.50;;;;;8.87;59.54;99574.13;6184220;28;97074;-63
2022/11/28 00:27:13;;;;;;;;;64.00;50.80;;;;;8.86;59.66;99587.75;6161141;28;97308;-64
2022/11/28 00:30:16;;;;;;;;;56.40;45.60;;;;;8.81;59.63;99595.56;6171151;28;96334;-64
2022/11/28 00:33:21;;;;;;;;;61.80;49.40;;;;;8.79;59.63;99600.34;6169292;28;97439;-64
2022/11/28 00:36:25;;;;;;;;;60.00;47.00;;;;;8.79;59.74;99601.16;6194156;28;96751;-63
2022/11/28 00:39:28;;;;;;;;;61.00;49.60;;;;;8.76;59.65;99593.47;6183578;28;98431;-63
2022/11/28 00:42:31;;;;;;;;;61.00;48.00;;;;;8.77;59.99;99594.31;6184450;28;96762;-62
2022/11/28 00:45:35;;;;;;;;;60.40;48.00;;;;;8.74;60.04;99597.38;6188835;28;96314;-63
2022/11/28 00:48:40;;;;;;;;;63.40;49.60;;;;;8.76;59.84;99592.63;6176958;28;97630;-63
2022/11/28 00:51:43;;;;;;;;;60.60;47.80;;;;;8.75;60.12;99591.00;6171045;28;96684;-62
2022/11/28 00:54:47;;;;;;;;;61.50;48.00;;;;;8.71;59.96;99590.53;6183632;28;96769;-63
2022/11/28 00:57:50;;;;;;;;;58.00;46.75;;;;;8.72;60.14;99596.75;6178473;28;96578;-63
2022/11/28 01:00:54;;;;;;;;;62.00;49.60;;;;;8.71;59.99;99590.53;6175355;28;96269;-64
2022/11/28 01:04:00;;;;;;;;;61.40;49.60;;;;;8.73;60.21;99587.66;6171861;28;96408;-64
2022/11/28 01:07:04;;;;;;;;;58.75;46.25;;;;;8.73;60.33;99571.53;6188583;28;97506;-64
2022/11/28 01:10:08;;;;;;;;;61.00;48.00;;;;;8.72;60.11;99573.38;6172292;28;96468;-62
2022/11/28 01:13:12;;;;;;;;;61.60;48.60;;;;;8.76;60.06;99571.97;6164304;28;96213;-64
2022/11/28 01:16:16;;;;;;;;;61.50;48.25;;;;;8.76;59.90;99565.75;6172265;28;96286;-63
2022/11/28 01:19:21;;;;;;;;;62.00;48.40;;;;;8.78;59.90;99569.09;6173941;28;96310;-63
2022/11/28 01:22:25;;;;;;;;;61.50;49.25;;;;;8.77;59.77;99564.72;6187429;28;96062;-64
2022/11/28 01:25:30;;;;;;;;;62.00;49.50;;;;;8.78;60.02;99566.41;6188337;28;96379;-63
2022/11/28 01:28:33;;;;;;;;;55.60;45.40;;;;;8.78;59.76;99559.16;6192766;28;96618;-63
2022/11/28 01:31:37;;;;;;;;;58.40;48.00;;;;;8.78;59.79;99551.09;6177709;28;96588;-63
2022/11/28 01:34:42;;;;;;;;;63.60;50.60;;;;;8.76;59.84;99541.56;6169749;28;98377;-63
2022/11/28 01:37:45;;;;;;;;;58.80;46.20;;;;;8.70;59.93;99543.16;6176592;28;96887;-63
2022/11/28 01:40:49;;;;;;;;;56.20;45.40;;;;;8.69;59.95;99538.84;6185474;28;96579;-64
2022/11/28 01:43:58;;;;;;;;;56.50;46.50;;;;;8.74;59.68;99533.72;6157312;28;97225;-63
2022/11/28 01:47:02;;;;;;;;;57.50;46.00;;;;;8.74;59.81;99527.50;6180179;28;97024;-64
2022/11/28 01:50:09;;;;;;;;;58.00;46.00;;;;;8.69;59.70;99528.91;6171903;28;97842;-63
2022/11/28 01:53:13;;;;;;;;;53.00;43.00;;;;;8.60;59.96;99516.59;6167961;28;96418;-64
2022/11/28 01:56:20;;;;;;;;;59.50;46.00;;;;;8.59;60.17;99516.81;6175380;28;96341;-63
2022/11/28 01:59:27;;;;;;;;;60.00;48.00;;;;;8.56;60.06;99503.75;6164117;28;97312;-64
2022/11/28 02:02:36;;;;;;;;;56.00;45.00;;;;;8.53;60.22;99504.16;6183299;28;96716;-63
2022/11/28 02:05:41;;;;;;;;;59.60;46.60;;;;;8.42;60.57;99502.81;6187865;28;96324;-64
2022/11/28 02:08:44;;;;;;;;;54.60;44.20;;;;;8.41;60.76;99489.56;6178076;28;96240;-63
2022/11/28 02:12:07;;;;;;;;;56.00;45.80;;;;;8.37;60.77;99494.50;6181521;28;96354;-63
2022/11/28 02:15:28;;;;;;;;;54.60;45.00;;;;;8.25;61.16;99467.31;6187455;28;96770;-63
2022/11/28 02:18:51;;;;;;;;;55.40;45.00;;;;;8.34;60.95;99488.69;6172678;28;96330;-63
2022/11/28 02:22:00;;;;;;;;;52.00;42.75;;;;;8.33;60.96;99476.28;6168114;28;96325;-63
2022/11/28 02:25:26;;;;;;;;;52.00;42.40;;;;;8.23;60.98;99472.03;6175297;28;96296;-63
2022/11/28 02:29:08;;;;;;;;;57.60;46.00;;;;;8.30;61.16;99474.81;6176997;28;96783;-63
2022/11/28 02:32:30;;;;;;;;;56.60;45.00;;;;;8.29;61.14;99478.50;6172704;28;96368;-63
2022/11/28 02:35:37;;;;;;;;;55.50;43.50;;;;;8.35;61.03;99482.28;6174658;28;96521;-63
2022/11/28 02:38:56;;;;;;;;;57.75;46.25;;;;;8.38;60.94;99482.72;6178505;28;96702;-63
2022/11/28 02:42:09;;;;;;;;;53.00;42.00;;;;;8.31;61.12;99473.75;6183505;28;96870;-63
2022/11/28 02:45:23;;;;;;;;;53.40;42.40;;;;;8.32;61.06;99477.28;6185267;28;97489;-63
2022/11/28 02:48:37;;;;;;;;;52.00;42.00;;;;;8.36;61.04;99474.03;6183694;28;97960;-63
2022/11/28 02:51:45;;;;;;;;;54.60;44.00;;;;;8.32;60.93;99472.75;6184735;28;96364;-63
2022/11/28 02:54:50;;;;;;;;;55.00;45.00;;;;;8.37;60.84;99469.47;6152058;28;96727;-62
2022/11/28 02:57:55;;;;;;;;;55.20;44.00;;;;;8.39;60.81;99470.97;6176182;28;97082;-63
2022/11/28 03:00:59;;;;;;;;;56.60;45.40;;;;;8.39;60.72;99465.59;6176396;28;96370;-63
2022/11/28 03:04:19;;;;;;;;;52.00;42.40;;;;;8.40;60.67;99455.69;6175469;28;97223;-64
2022/11/28 03:07:36;;;;;;;;;47.60;40.00;;;;;8.41;60.67;99458.16;6176508;28;96721;-63
2022/11/28 03:10:45;;;;;;;;;50.00;40.20;;;;;8.31;60.93;99454.97;6175711;28;96447;-64
2022/11/28 03:13:57;;;;;;;;;57.00;46.00;;;;;8.22;61.01;99453.41;6178281;28;96290;-64
2022/11/28 03:17:10;;;;;;;;;53.00;43.60;;;;;8.36;61.03;99459.75;6160103;28;96513;-63
2022/11/28 03:20:23;;;;;;;;;51.75;40.75;;;;;8.43;60.90;99453.44;6163376;28;96623;-63
2022/11/28 03:23:34;;;;;;;;;56.00;44.60;;;;;8.44;60.70;99443.50;6173149;28;96569;-64
2022/11/28 03:26:47;;;;;;;;;55.00;44.00;;;;;8.37;60.49;99432.69;6152894;28;96299;-63
2022/11/28 03:29:54;;;;;;;;;55.40;44.00;;;;;8.43;60.35;99440.00;6182602;28;96773;-63
2022/11/28 03:33:01;;;;;;;;;55.00;44.00;;;;;8.50;60.37;99450.81;6170430;28;96482;-63
2022/11/28 03:36:11;;;;;;;;;53.40;44.00;;;;;8.35;60.41;99431.25;6178741;28;97071;-63
2022/11/28 03:39:20;;;;;;;;;53.67;43.67;;;;;8.44;60.57;99443.50;6169222;28;96733;-63
2022/11/28 03:42:27;;;;;;;;;53.50;43.00;;;;;8.38;60.55;99439.75;6182301;28;98450;-63
2022/11/28 03:45:36;;;;;;;;;52.80;41.80;;;;;8.41;60.73;99433.13;6187616;28;96545;-63
2022/11/28 03:48:44;;;;;;;;;51.00;42.00;;;;;8.40;60.82;99435.03;6191249;28;96508;-63
2022/11/28 03:51:55;;;;;;;;;54.60;44.00;;;;;8.41;60.81;99431.28;6188713;28;96285;-63
2022/11/28 03:55:04;;;;;;;;;50.60;42.00;;;;;8.41;60.67;99430.44;6178621;28;96228;-63
2022/11/28 03:58:14;;;;;;;;;53.80;44.00;;;;;8.40;60.69;99431.50;6172195;28;97280;-64
2022/11/28 04:01:28;;;;;;;;;51.00;42.00;;;;;8.38;60.82;99425.47;6191200;28;96426;-63
2022/11/28 04:04:40;;;;;;;;;52.50;43.00;;;;;8.40;60.78;99428.81;6193956;28;96794;-65
2022/11/28 04:07:52;;;;;;;;;52.00;43.00;;;;;8.44;60.70;99428.22;6181787;28;96372;-64
2022/11/28 04:11:02;;;;;;;;;53.00;44.00;;;;;8.34;60.87;99410.78;6170167;28;96612;-63
2022/11/28 04:14:11;;;;;;;;;51.40;41.60;;;;;8.40;60.80;99420.75;6178889;28;96682;-63
2022/11/28 04:17:21;;;;;;;;;52.00;42.60;;;;;8.43;60.53;99420.34;6179806;28;96542;-63
2022/11/28 04:20:29;;;;;;;;;51.00;41.00;;;;;8.47;60.50;99430.50;6176018;28;96702;-63
2022/11/28 04:23:37;;;;;;;;;51.75;42.00;;;;;8.25;60.43;99404.69;6175902;28;96471;-63
2022/11/28 04:26:46;;;;;;;;;50.00;41.00;;;;;8.39;60.54;99413.72;6185687;28;96891;-64
2022/11/28 04:29:54;;;;;;;;;52.40;42.40;;;;;8.16;60.46;99387.06;6185628;28;96605;-64
2022/11/28 04:33:01;;;;;;;;;51.40;40.60;;;;;8.37;60.85;99418.44;6175653;28;96424;-64
2022/11/28 04:36:07;;;;;;;;;46.20;38.00;;;;;8.36;60.78;99414.91;6179528;28;97147;-66
2022/11/28 04:39:14;;;;;;;;;49.20;38.80;;;;;8.34;60.81;99411.59;6177211;28;96501;-63
2022/11/28 04:42:23;;;;;;;;;52.80;41.40;;;;;8.26;60.67;99401.78;6169639;28;96392;-63
2022/11/28 04:45:30;;;;;;;;;52.40;42.40;;;;;8.35;60.79;99413.28;6165731;28;97021;-63
2022/11/28 04:48:34;;;;;;;;;52.50;42.50;;;;;8.40;60.67;99410.84;6179660;28;96537;-64
2022/11/28 04:51:44;;;;;;;;;49.00;41.00;;;;;8.22;60.36;99384.41;6179432;28;96536;-63
2022/11/28 04:54:56;;;;;;;;;51.40;41.40;;;;;8.36;60.62;99409.53;6171573;28;96281;-63
2022/11/28 04:58:08;;;;;;;;;49.67;39.67;;;;;8.28;60.77;99406.97;6183366;28;96958;-63
2022/11/28 05:01:17;;;;;;;;;52.00;42.00;;;;;8.34;60.67;99419.66;6177000;28;96974;-63
2022/11/28 05:04:21;;;;;;;;;47.00;39.00;;;;;8.27;60.81;99397.25;6170167;28;96624;-63
2022/11/28 05:07:25;;;;;;;;;49.60;39.20;;;;;8.34;60.83;99408.94;6181899;28;96272;-63
2022/11/28 05:10:30;;;;;;;;;51.00;42.00;;;;;8.38;60.69;99401.28;6170371;28;96912;-63
2022/11/28 05:13:33;;;;;;;;;52.00;42.00;;;;;8.40;60.43;99401.94;6180020;28;96550;-63
2022/11/28 05:16:36;;;;;;;;;48.75;41.00;;;;;8.39;60.65;99401.13;6184361;28;96357;-63
2022/11/28 05:19:40;;;;;;;;;52.00;42.00;;;;;8.42;60.25;99403.41;6195356;28;96377;-63
2022/11/28 05:22:43;;;;;;;;;46.00;37.00;;;;;8.37;60.34;99410.38;6188885;28;96914;-63
2022/11/28 05:25:47;;;;;;;;;46.00;38.00;;;;;8.40;60.40;99405.47;6196498;28;97542;-65
2022/11/28 05:28:51;;;;;;;;;50.00;39.80;;;;;8.40;60.46;99402.78;6195873;28;97474;-65
2022/11/28 05:31:55;;;;;;;;;49.00;40.40;;;;;8.38;60.29;99399.44;6176240;28;96920;-64
2022/11/28 05:34:58;;;;;;;;;50.00;41.00;;;;;8.38;60.25;99409.34;6196631;28;96416;-64
2022/11/28 05:38:02;;;;;;;;;53.00;43.00;;;;;8.33;60.38;99404.56;6195826;28;96377;-64
2022/11/28 05:41:07;;;;;;;;;50.40;40.80;;;;;8.36;60.33;99406.84;6179793;28;96576;-64
2022/11/28 05:44:11;;;;;;;;;48.00;38.80;;;;;8.40;60.25;99400.09;6184923;28;96927;-64
2022/11/28 05:47:15;;;;;;;;;49.00;39.75;;;;;8.41;60.25;99403.56;6186157;28;96638;-64
2022/11/28 05:50:18;;;;;;;;;45.00;37.00;;;;;8.43;60.11;99404.22;6184621;28;96690;-65
2022/11/28 05:53:22;;;;;;;;;52.60;41.80;;;;;8.48;60.00;99402.63;6173830;28;96526;-63
2022/11/28 05:56:26;;;;;;;;;50.80;41.20;;;;;8.40;60.12;99400.09;6171105;28;97751;-64
2022/11/28 05:59:29;;;;;;;;;48.00;40.00;;;;;8.44;59.84;99406.72;6170637;28;97184;-64
2022/11/28 06:02:35;;;;;;;;;51.80;39.40;;;;;8.44;59.87;99398.66;6168817;28;96633;-64
2022/11/28 06:05:40;;;;;;;;;48.80;40.60;;;;;8.49;59.89;99400.78;6165722;28;96958;-64
2022/11/28 06:08:46;;;;;;;;;48.67;41.33;;;;;8.47;60.00;99400.94;6166096;28;97102;-64
2022/11/28 06:11:51;;;;;;;;;53.25;43.00;;;;;8.43;59.93;99398.84;6180736;28;97313;-63
2022/11/28 06:14:54;;;;;;;;;49.40;41.40;;;;;8.45;60.06;99404.88;6183941;28;96575;-64
2022/11/28 06:17:58;;;;;;;;;49.25;40.75;;;;;8.48;59.88;99399.09;6174170;28;99078;-64
2022/11/28 06:21:02;;;;;;;;;50.00;40.00;;;;;8.51;59.83;99401.38;6163352;28;96768;-64
2022/11/28 06:24:06;;;;;;;;;49.20;40.60;;;;;8.37;59.93;99399.63;6168692;28;98236;-64
2022/11/28 06:27:10;;;;;;;;;49.80;41.80;;;;;8.47;59.75;99405.50;6168926;28;96559;-64
2022/11/28 06:30:14;;;;;;;;;44.50;38.00;;;;;8.42;59.72;99411.47;6169917;28;96416;-64
2022/11/28 06:33:17;;;;;;;;;48.60;39.80;;;;;8.40;59.69;99410.84;6170981;28;96856;-64
2022/11/28 06:36:21;;;;;;;;;46.00;38.20;;;;;8.43;59.65;99406.91;6181664;28;96646;-65
2022/11/28 06:39:24;;;;;;;;;46.00;38.00;;;;;8.42;59.66;99411.47;6160800;28;99086;-64
2022/11/28 06:42:29;;;;;;;;;49.00;40.25;;;;;8.49;59.31;99409.66;6184774;28;96251;-65
2022/11/28 06:45:33;;;;;;;;;48.40;39.80;;;;;8.50;59.45;99410.50;6159766;28;97311;-63
2022/11/28 06:48:37;;;;;;;;;46.40;38.00;;;;;8.50;59.39;99399.75;6179532;28;96349;-63
2022/11/28 06:51:41;;;;;;;;;42.60;35.60;;;;;8.43;59.40;99405.06;6166640;28;96316;-62
2022/11/28 06:54:45;;;;;;;;;47.00;39.00;;;;;8.40;59.64;99401.94;6165500;28;96566;-63
2022/11/28 06:57:50;;;;;;;;;45.00;36.00;;;;;8.43;59.66;99402.38;6165176;28;96795;-64
2022/11/28 07:00:53;;;;;;;;;43.00;36.00;;;;;8.41;59.57;99406.28;6163162;28;96603;-64
2022/11/28 07:03:57;;;;;;;;;47.60;39.20;;;;;8.47;59.50;99405.50;6185536;28;96474;-64
2022/11/28 07:07:00;;;;;;;;;34.80;32.00;;;;;8.53;59.57;99410.94;6170516;28;96635;-64
2022/11/28 07:10:04;;;;;;;;;42.00;36.00;;;;;8.58;59.29;99399.59;6191155;28;96989;-63
2022/11/28 07:13:09;;;;;;;;;46.00;36.40;;;;;8.57;59.23;99396.06;6182586;28;96544;-64
2022/11/28 07:16:14;;;;;;;;;45.40;37.80;;;;;8.65;59.10;99406.66;6175239;28;97121;-63
2022/11/28 07:19:21;;;;;;;;;45.00;35.75;;;;;8.70;59.05;99400.69;6169602;28;97124;-63
2022/11/28 07:22:24;;;;;;;;;36.40;31.40;;;;;8.58;58.69;99400.41;6158624;28;96885;-63
2022/11/28 07:25:28;;;;;;;;;41.40;33.40;;;;;8.58;58.86;99396.91;6192680;28;96345;-63
2022/11/28 07:28:34;;;;;;;;;38.75;33.75;;;;;8.61;58.92;99399.19;6191711;28;97572;-63
2022/11/28 07:31:37;;;;;;;;;46.20;38.00;;;;;8.64;58.91;99396.13;6192766;28;97581;-63
2022/11/28 07:34:41;;;;;;;;;41.20;35.00;;;;;8.62;58.64;99393.63;6191875;28;96514;-63
2022/11/28 07:37:49;;;;;;;;;43.40;36.00;;;;;8.64;58.49;99390.75;6191983;28;97370;-63
2022/11/28 07:40:53;;;;;;;;;38.80;34.40;;;;;8.57;58.65;99387.16;6190198;28;97182;-63
2022/11/28 07:44:00;;;;;;;;;45.00;37.60;;;;;8.58;58.60;99391.53;6191479;28;96536;-63
2022/11/28 07:47:04;;;;;;;;;43.20;35.80;;;;;8.65;58.55;99398.59;6191664;28;96582;-63
2022/11/28 07:50:08;;;;;;;;;40.60;35.20;;;;;8.72;58.49;99387.88;6192071;28;96352;-63
2022/11/28 07:53:12;;;;;;;;;37.80;33.00;;;;;8.83;58.77;99389.19;6193576;28;96916;-63
2022/11/28 07:56:20;;;;;;;;;40.80;34.00;;;;;8.72;58.04;99387.88;6193146;28;96566;-63
2022/11/28 07:59:24;;;;;;;;;38.00;33.20;;;;;8.65;57.87;99398.59;6175148;28;97993;-63
2022/11/28 08:02:31;;;;;;;;;39.75;34.00;;;;;8.70;58.04;99390.75;6176060;28;96704;-63
2022/11/28 08:05:34;;;;;;;;;38.75;34.50;;;;;8.78;58.25;99397.88;6193946;28;96562;-63
2022/11/28 08:08:38;;;;;;;;;34.20;31.80;;;;;8.80;57.74;99384.19;6170901;28;96438;-63
2022/11/28 08:11:41;;;;;;;;;41.50;35.00;;;;;8.80;57.47;99376.13;6192014;28;96315;-63
2022/11/28 08:14:46;;;;;;;;;46.00;37.00;;;;;8.94;57.37;99391.34;6187598;28;97511;-63
2022/11/28 08:17:50;;;;;;;;;37.60;32.60;;;;;8.92;57.25;99390.69;6171663;28;96457;-63
2022/11/28 08:21:03;;;;;;;;;43.00;35.00;;;;;8.97;57.26;99394.44;6189574;28;96911;-64
2022/11/28 08:24:08;;;;;;;;;40.25;33.25;;;;;9.03;57.30;99390.13;6189793;28;96580;-64
2022/11/28 08:27:11;;;;;;;;;42.20;34.80;;;;;9.03;57.14;99395.53;6178050;28;96920;-63
2022/11/28 08:30:16;;;;;;;;;37.00;32.00;;;;;9.14;57.45;99393.06;6171026;28;98405;-63
2022/11/28 08:33:20;;;;;;;;;43.50;35.00;;;;;9.23;56.67;99395.63;6189386;28;96358;-64
2022/11/28 08:36:24;;;;;;;;;42.00;35.80;;;;;9.35;56.69;99392.13;6189053;28;96291;-63
2022/11/28 08:39:31;;;;;;;;;45.00;36.60;;;;;9.41;56.64;99388.63;6171393;28;96434;-63
2022/11/28 08:42:34;;;;;;;;;42.80;33.80;;;;;9.49;56.26;99395.69;6186950;28;96474;-63
2022/11/28 08:45:39;;;;;;;;;38.50;33.50;;;;;9.51;56.11;99388.25;6188850;28;96397;-63
2022/11/28 08:48:43;;;;;;;;;45.00;36.00;;;;;9.62;55.57;99389.53;6189014;28;96295;-63
2022/11/28 08:51:46;;;;;;;;;34.80;30.20;;;;;9.70;55.58;99381.25;6188670;28;96724;-63
2022/11/28 08:54:49;;;;;;;;;38.50;33.00;;;;;9.77;55.24;99376.72;6189037;28;96369;-63
2022/11/28 08:57:53;;;;;;;;;39.00;34.00;;;;;9.78;54.79;99376.50;6188251;28;96942;-63
2022/11/28 09:00:58;;;;;;;;;35.40;32.00;;;;;9.84;55.04;99377.56;6188508;28;96338;-63
2022/11/28 09:04:02;;;;;;;;;41.00;35.00;;;;;9.95;55.24;99375.09;6188760;28;96830;-63
2022/11/28 09:07:05;;;;;;;;;38.40;33.00;;;;;10.05;54.84;99363.06;6188881;28;96649;-63
2022/11/28 09:10:09;;;;;;;;;36.00;32.00;;;;;10.17;54.05;99364.13;6188944;28;96774;-64
2022/11/28 09:13:14;;;;;;;;;33.20;31.40;;;;;10.26;53.57;99358.31;6187940;28;96839;-64
2022/11/28 09:16:19;;;;;;;;;24.00;22.00;;;;;10.33;53.65;99358.31;6169968;28;97878;-64
2022/11/28 09:19:23;;;;;;;;;31.50;28.00;;;;;10.38;53.45;99353.13;6186827;28;96697;-63
2022/11/28 09:22:28;;;;;;;;;29.80;27.80;;;;;10.44;52.96;99352.31;6188797;28;96430;-64
2022/11/28 09:25:31;;;;;;;;;33.00;30.40;;;;;10.48;52.92;99337.38;6187984;28;96460;-64
2022/11/28 09:28:35;;;;;;;;;39.25;33.25;;;;;10.53;53.20;99328.66;6184659;28;96495;-64
2022/11/28 09:31:40;;;;;;;;;31.00;29.00;;;;;10.69;52.37;99329.03;6185910;28;97141;-64
2022/11/28 09:34:50;;;;;;;;;39.00;35.00;;;;;10.66;51.92;99323.22;6187127;28;96666;-63
2022/11/28 09:37:53;;;;;;;;;30.40;28.40;;;;;10.75;52.64;99332.75;6171176;28;96938;-63
2022/11/28 09:40:56;;;;;;;;;38.60;34.00;;;;;10.84;52.18;99323.41;6185071;28;96638;-63
2022/11/28 09:44:03;;;;;;;;;39.60;33.00;;;;;11.00;52.16;99322.06;6187798;28;97430;-64
2022/11/28 09:47:16;;;;;;;;;33.50;30.25;;;;;11.12;51.35;99320.38;6187117;28;96682;-63
2022/11/28 09:50:23;;;;;;;;;34.40;30.00;;;;;11.24;51.30;99322.16;6187727;28;97023;-64
2022/11/28 09:53:34;;;;;;;;;34.20;30.40;;;;;11.32;50.43;99322.97;6187420;28;96626;-64
2022/11/28 09:56:37;;;;;;;;;34.20;28.80;;;;;11.42;50.93;99315.22;6186100;28;96518;-63
2022/11/28 09:59:41;;;;;;;;;30.00;27.75;;;;;11.64;50.44;99313.84;6185987;28;96706;-64
2022/11/28 10:03:01;;;;;;;;;34.50;32.00;;;;;11.84;49.29;99298.34;6173550;28;96377;-64
2022/11/28 10:06:15;;;;;;;;;35.75;33.00;;;;;12.21;49.08;99304.69;6160759;28;96491;-63
2022/11/28 10:09:34;;;;;;;;;35.00;32.00;;;;;12.34;48.15;99303.72;6165292;28;96634;-63
2022/11/28 10:12:51;;;;;;;;;30.75;29.75;;;;;12.35;47.56;99303.53;6165629;28;96308;-64
2022/11/28 10:16:06;;;;;;;;;34.50;31.50;;;;;12.37;46.96;99295.16;6166087;28;96589;-64
2022/11/28 10:19:15;;;;;;;;;32.00;28.40;;;;;12.37;46.94;99271.66;6165174;28;96591;-64
2022/11/28 10:22:44;;;;;;;;;28.00;26.25;;;;;12.66;46.62;99302.56;6169903;28;97116;-63
2022/11/28 10:25:53;;;;;;;;;29.40;27.60;;;;;12.79;46.62;99294.31;6159634;28;96679;-65
2022/11/28 10:29:01;;;;;;;;;29.00;26.80;;;;;13.22;46.21;99296.09;6187227;28;96432;-64
2022/11/28 10:32:06;;;;;;;;;32.33;29.33;;;;;13.77;44.93;99294.88;6187274;28;96396;-64
2022/11/28 10:35:25;;;;;;;;;28.00;27.00;;;;;14.28;43.90;99296.09;6187056;28;96255;-64
2022/11/28 10:38:35;;;;;;;;;26.20;23.60;;;;;15.34;41.99;99284.84;6185734;28;96224;-64
2022/11/28 10:41:44;;;;;;;;;21.00;19.40;;;;;17.54;38.29;99278.59;6187045;28;96361;-64
2022/11/28 10:44:59;;;;;;;;;22.00;20.00;;;;;19.51;33.21;99270.03;6187318;28;97900;-65
2022/11/28 10:48:12;;;;;;;;;21.33;19.33;;;;;21.16;31.78;99278.38;6186961;28;96453;-65
2022/11/28 10:51:48;;;;;;;;;20.00;19.00;;;;;22.83;29.40;99272.41;6186690;28;97489;-66
2022/11/28 10:55:12;;;;;;;;;22.00;18.25;;;;;24.13;27.27;99268.16;6164354;28;96896;-66
2022/11/28 10:58:23;;;;;;;;;20.40;18.40;;;;;25.18;24.33;99263.72;6181679;28;96460;-66
2022/11/28 11:01:29;;;;;;;;;19.40;18.00;;;;;26.18;24.03;99267.22;6185778;28;96424;-66
2022/11/28 11:04:36;;;;;;;;;18.00;17.40;;;;;26.54;23.07;99254.13;6180886;28;96237;-68
2022/11/28 11:07:47;;;;;;;;;21.00;17.80;;;;;26.90;22.91;99255.94;6182453;28;96656;-66
2022/11/28 11:11:02;;;;;;;;;18.80;18.00;;;;;27.24;21.97;99244.13;6186447;28;96452;-66
2022/11/28 11:14:07;;;;;;;;;19.60;19.00;;;;;27.66;21.95;99237.84;6183032;28;96885;-67
2022/11/28 11:17:25;;;;;;;;;21.60;20.60;;;;;28.09;21.03;99231.50;6185455;28;96578;-67
2022/11/28 11:20:37;;;;;;;;;21.00;20.00;;;;;28.53;20.55;99242.19;6163965;28;96684;-68
2022/11/28 11:23:42;;;;;;;;;18.50;18.50;;;;;28.90;20.20;99232.25;6182883;28;96522;-68
2022/11/28 11:26:48;;;;;;;;;18.50;17.50;;;;;29.19;19.93;99229.47;6186152;28;96897;-67
2022/11/28 11:29:52;;;;;;;;;19.00;17.00;;;;;29.54;19.33;99232.03;6168049;28;96929;-68
2022/11/28 11:32:57;;;;;;;;;21.60;18.00;;;;;29.74;18.76;99225.66;6186320;28;98170;-67
2022/11/28 11:36:04;;;;;;;;;20.60;18.20;;;;;29.79;19.41;99231.03;6178288;28;96992;-67
2022/11/28 11:39:20;;;;;;;;;18.60;17.60;;;;;28.92;19.59;99229.16;6179033;28;97082;-66
2022/11/28 11:42:26;;;;;;;;;20.25;19.25;;;;;26.86;20.90;99233.63;6186038;28;96245;-65
2022/11/28 11:45:32;;;;;;;;;21.00;18.00;;;;;25.50;22.25;99229.63;6185224;28;97615;-65
2022/11/28 11:48:38;;;;;;;;;18.00;17.60;;;;;24.74;23.23;99227.63;6174880;28;96562;-65
2022/11/28 11:51:42;;;;;;;;;18.00;17.00;;;;;23.99;24.45;99220.47;6183464;28;96598;-65
2022/11/28 11:55:03;;;;;;;;;16.75;16.00;;;;;22.88;25.50;99219.31;6185434;28;97598;-66
2022/11/28 11:58:10;;;;;;;;;19.00;18.00;;;;;22.86;26.11;99210.56;6166009;28;99640;-66
2022/11/28 12:01:19;;;;;;;;;19.00;18.60;;;;;23.39;25.49;99211.19;6164740;28;96989;-66
2022/11/28 12:04:30;;;;;;;;;19.00;18.00;;;;;24.01;24.54;99209.13;6176554;28;97050;-67
2022/11/28 12:07:57;;;;;;;;;19.25;18.25;;;;;24.19;24.40;99213.78;6167691;28;96722;-66
2022/11/28 12:11:13;;;;;;;;;19.00;17.00;;;;;23.51;24.81;99203.31;6178751;28;97014;-65
2022/11/28 12:14:28;;;;;;;;;19.60;18.00;;;;;23.52;25.00;99207.72;6186199;28;97008;-65
2022/11/28 12:17:43;;;;;;;;;17.60;16.00;;;;;23.78;24.32;99199.06;6164180;28;96689;-67
2022/11/28 12:21:06;;;;;;;;;20.00;18.25;;;;;23.93;24.60;99205.13;6185896;28;97121;-65
2022/11/28 12:24:13;;;;;;;;;19.00;18.00;;;;;24.13;24.30;99199.28;6183549;28;96341;-66
2022/11/28 12:27:33;;;;;;;;;18.00;16.00;;;;;24.14;24.43;99194.59;6186365;28;96892;-67
2022/11/28 12:30:53;;;;;;;;;17.00;16.00;;;;;23.91;24.41;99199.09;6184671;28;96703;-65
2022/11/28 12:34:08;;;;;;;;;17.00;16.00;;;;;23.20;25.13;99191.13;6186570;28;96540;-66
2022/11/28 12:37:25;;;;;;;;;16.00;15.00;;;;;22.55;26.13;99192.75;6186287;28;96227;-65
2022/11/28 12:41:03;;;;;;;;;18.80;16.60;;;;;21.84;26.55;99194.28;6175611;28;96470;-66
2022/11/28 12:44:20;;;;;;;;;15.00;14.00;;;;;20.62;27.84;99187.88;6189603;28;96676;-65
2022/11/28 12:47:36;;;;;;;;;16.60;14.60;;;;;19.52;29.16;99182.25;6189603;28;96414;-65
2022/11/28 12:50:42;;;;;;;;;15.00;14.80;;;;;18.52;30.64;99189.84;6182069;28;96432;-64
2022/11/28 12:54:01;;;;;;;;;25.00;22.00;;;;;17.75;32.10;99192.34;6170702;28;96713;-66
2022/11/28 12:57:11;;;;;;;;;18.40;17.40;;;;;17.09;32.82;99191.72;6188692;28;96412;-65
2022/11/28 13:00:21;;;;;;;;;19.80;17.00;;;;;16.44;34.16;99189.84;6188490;28;96387;-65
2022/11/28 13:03:39;;;;;;;;;20.80;18.40;;;;;16.04;34.90;99184.66;6187120;28;97013;-65
2022/11/28 13:06:55;;;;;;;;;21.20;21.00;;;;;15.76;35.58;99181.22;6177908;28;96449;-65
2022/11/28 13:10:04;;;;;;;;;24.00;23.00;;;;;15.82;35.58;99191.94;6173504;28;96402;-64
2022/11/28 13:13:13;;;;;;;;;20.40;19.80;;;;;16.01;35.28;99174.28;6175694;28;96655;-64
2022/11/28 13:16:26;;;;;;;;;22.00;20.60;;;;;16.26;35.24;99179.25;6180771;28;96958;-64
2022/11/28 13:19:38;;;;;;;;;21.00;19.60;;;;;16.39;34.28;99178.88;6172787;28;96314;-65
2022/11/28 13:22:56;;;;;;;;;24.80;23.20;;;;;16.54;34.75;99185.59;6177438;28;96888;-65
2022/11/28 13:26:05;;;;;;;;;15.00;14.00;;;;;16.55;34.26;99162.75;6182878;28;96477;-66
2022/11/28 13:29:21;;;;;;;;;21.40;21.00;;;;;16.36;34.09;99171.25;6165103;28;96723;-65
2022/11/28 13:32:35;;;;;;;;;25.00;23.00;;;;;16.49;34.63;99161.88;6184182;28;96534;-64
2022/11/28 13:35:42;;;;;;;;;18.75;17.75;;;;;16.48;34.58;99177.38;6186509;28;96559;-65
2022/11/28 13:38:54;;;;;;;;;23.40;22.60;;;;;16.43;34.62;99173.75;6184027;28;96700;-64
2022/11/28 13:42:32;;;;;;;;;21.40;19.40;;;;;16.06;34.92;99170.00;6187464;28;97043;-65
2022/11/28 13:45:56;;;;;;;;;21.50;20.50;;;;;15.58;35.67;99174.16;6180688;28;96264;-64
2022/11/28 13:49:22;;;;;;;;;17.00;16.00;;;;;15.27;36.21;99172.78;6167479;28;98307;-64
2022/11/28 13:52:33;;;;;;;;;19.60;17.00;;;;;15.05;36.55;99155.56;6186380;28;96580;-64
2022/11/28 13:55:45;;;;;;;;;20.00;19.00;;;;;15.06;36.69;99168.88;6186872;28;97061;-64
2022/11/28 13:58:52;;;;;;;;;24.00;22.00;;;;;14.76;37.02;99145.78;6187819;28;96630;-65
2022/11/28 14:02:04;;;;;;;;;22.75;21.00;;;;;14.83;37.12;99171.69;6169662;28;96855;-64
2022/11/28 14:05:26;;;;;;;;;18.75;18.00;;;;;14.67;37.65;99178.72;6187742;28;96391;-64
2022/11/28 14:08:34;;;;;;;;;17.40;15.40;;;;;14.43;37.70;99176.28;6188075;28;96241;-64
2022/11/28 14:11:59;;;;;;;;;24.80;23.20;;;;;14.22;38.25;99173.13;6169710;28;96404;-63
2022/11/28 14:15:23;;;;;;;;;25.80;24.00;;;;;14.01;38.50;99172.91;6153007;28;98352;-64
2022/11/28 14:18:42;;;;;;;;;19.00;18.00;;;;;13.78;38.90;99163.72;6152195;28;98536;-64
2022/11/28 14:22:16;;;;;;;;;19.60;19.60;;;;;13.53;39.42;99167.72;6164203;28;96662;-65
2022/11/28 14:25:26;;;;;;;;;19.20;17.60;;;;;13.30;39.87;99168.50;6168184;28;97026;-65
2022/11/28 14:28:35;;;;;;;;;15.60;13.00;;;;;13.01;40.49;99178.28;6172754;28;97321;-64
2022/11/28 14:31:39;;;;;;;;;19.25;18.75;;;;;12.73;41.27;99175.34;6165952;28;96599;-64
2022/11/28 14:35:05;;;;;;;;;27.00;27.00;;;;;12.48;41.57;99168.16;6160130;28;96883;-65